TVS4361 LDZD-ELLX
Flight info
| Callsign | TVS4361 |
|---|---|
| Flight time | N/A |
| Altitude | 36000 |
| Route | SAL DCT IPKIS DCT LABIN DCT VIC DCT RESIA DCT ELMUR DCT RIPUS L613 HOC DCT LUL DCT GIVOR |
| Aircraft | B738/M-SDE3FGHIJ1RWXY/LB1 |
Departure
| Time | 2026-05-01 14:25 |
|---|---|
| Airport | Zadar Airport (LDZD) |
Arrival
| Time | N/A |
|---|---|
| Airport | Luxembourg-Findel International Airport (ELLX) |
| Time | Latitude | Longitude | Altitude | Speed | Heading |
|---|---|---|---|---|---|
| 2026-05-01 14:04 | 44.09663 | 15.35426 | 263 ft | 0 kts | 326° |
| 2026-05-01 14:22 | 44.09664 | 15.35424 | 263 ft | 1 kts | 326° |
| 2026-05-01 14:22 | 44.09678 | 15.35424 | 263 ft | 4 kts | 30° |
| 2026-05-01 14:22 | 44.09732 | 15.35483 | 262 ft | 15 kts | 37° |
| 2026-05-01 14:23 | 44.09840 | 15.35520 | 259 ft | 14 kts | 356° |
| 2026-05-01 14:23 | 44.09932 | 15.35576 | 257 ft | 16 kts | 49° |
| 2026-05-01 14:23 | 44.10014 | 15.35693 | 253 ft | 14 kts | 37° |
| 2026-05-01 14:23 | 44.10086 | 15.35667 | 254 ft | 10 kts | 322° |
| 2026-05-01 14:24 | 44.10107 | 15.35642 | 254 ft | 0 kts | 315° |
| 2026-05-01 14:24 | 44.10112 | 15.35635 | 254 ft | 4 kts | 315° |
| 2026-05-01 14:24 | 44.10265 | 15.35434 | 254 ft | 72 kts | 316° |
| 2026-05-01 14:25 | 44.10846 | 15.34640 | 248 ft | 156 kts | 316° |
| 2026-05-01 14:25 | 44.11682 | 15.33413 | 742 ft | 185 kts | 318° |
| 2026-05-01 14:25 | 44.12659 | 15.32127 | 1479 ft | 212 kts | 323° |
| 2026-05-01 14:25 | 44.13808 | 15.30664 | 2227 ft | 241 kts | 321° |
| 2026-05-01 14:26 | 44.15036 | 15.29016 | 3335 ft | 251 kts | 322° |
| 2026-05-01 14:26 | 44.17530 | 15.25602 | 5416 ft | 262 kts | 316° |
| 2026-05-01 14:26 | 44.18376 | 15.23297 | 6276 ft | 284 kts | 285° |
| 2026-05-01 14:27 | 44.18538 | 15.20530 | 7126 ft | 295 kts | 270° |
| 2026-05-01 14:27 | 44.18086 | 15.17734 | 7972 ft | 304 kts | 244° |
| 2026-05-01 14:27 | 44.16767 | 15.15482 | 8753 ft | 308 kts | 216° |
| 2026-05-01 14:28 | 44.12887 | 15.13118 | 10437 ft | 307 kts | 193° |
| 2026-05-01 14:28 | 44.10828 | 15.12253 | 11291 ft | 315 kts | 193° |
| 2026-05-01 14:28 | 44.08656 | 15.11335 | 11863 ft | 334 kts | 194° |
| 2026-05-01 14:28 | 44.06494 | 15.10027 | 12429 ft | 352 kts | 210° |
| 2026-05-01 14:29 | 44.04644 | 15.07711 | 13004 ft | 368 kts | 234° |
| 2026-05-01 14:29 | 44.03564 | 15.04440 | 13497 ft | 380 kts | 261° |
| 2026-05-01 14:30 | 44.05328 | 14.94230 | 15922 ft | 367 kts | 311° |
| 2026-05-01 14:30 | 44.06819 | 14.91330 | 16716 ft | 371 kts | 313° |
| 2026-05-01 14:30 | 44.08318 | 14.88440 | 17409 ft | 378 kts | 313° |
| 2026-05-01 14:31 | 44.11353 | 14.82400 | 19042 ft | 384 kts | 313° |
| 2026-05-01 14:31 | 44.12851 | 14.79370 | 19717 ft | 389 kts | 313° |
| 2026-05-01 14:31 | 44.14409 | 14.76211 | 20336 ft | 396 kts | 313° |
| 2026-05-01 14:31 | 44.15963 | 14.73047 | 21189 ft | 396 kts | 313° |
| 2026-05-01 14:32 | 44.17548 | 14.69828 | 21539 ft | 409 kts | 313° |
| 2026-05-01 14:32 | 44.19127 | 14.66599 | 22471 ft | 405 kts | 313° |
| 2026-05-01 14:32 | 44.20713 | 14.63353 | 23076 ft | 410 kts | 313° |
| 2026-05-01 14:32 | 44.22318 | 14.60070 | 23656 ft | 415 kts | 313° |
| 2026-05-01 14:33 | 44.23957 | 14.56714 | 24136 ft | 423 kts | 313° |
| 2026-05-01 14:33 | 44.25596 | 14.53349 | 24738 ft | 426 kts | 313° |
| 2026-05-01 14:33 | 44.27280 | 14.49886 | 25324 ft | 430 kts | 313° |
| 2026-05-01 14:33 | 44.28939 | 14.46468 | 25961 ft | 431 kts | 313° |
| 2026-05-01 14:34 | 44.30304 | 14.43654 | 26302 ft | 437 kts | 313° |
| 2026-05-01 14:34 | 44.32014 | 14.40126 | 26859 ft | 440 kts | 313° |
| 2026-05-01 14:34 | 44.33718 | 14.36601 | 27414 ft | 442 kts | 313° |
| 2026-05-01 14:34 | 44.35427 | 14.33064 | 28036 ft | 442 kts | 312° |
| 2026-05-01 14:35 | 44.37167 | 14.29473 | 28508 ft | 445 kts | 313° |
| 2026-05-01 14:35 | 44.38935 | 14.25955 | 28899 ft | 448 kts | 314° |
| 2026-05-01 14:35 | 44.40780 | 14.22425 | 29518 ft | 447 kts | 315° |
| 2026-05-01 14:35 | 44.42621 | 14.18934 | 29782 ft | 454 kts | 315° |
| 2026-05-01 14:36 | 44.44498 | 14.15347 | 30239 ft | 457 kts | 315° |
| 2026-05-01 14:36 | 44.46375 | 14.11751 | 30757 ft | 457 kts | 315° |
| 2026-05-01 14:36 | 44.48197 | 14.08230 | 31492 ft | 451 kts | 315° |
| 2026-05-01 14:36 | 44.50046 | 14.04649 | 32188 ft | 446 kts | 314° |
| 2026-05-01 14:37 | 44.51849 | 14.01155 | 32703 ft | 445 kts | 315° |
| 2026-05-01 14:37 | 44.53658 | 13.97663 | 32922 ft | 450 kts | 315° |
| 2026-05-01 14:37 | 44.55510 | 13.94081 | 33437 ft | 449 kts | 314° |
| 2026-05-01 14:37 | 44.57320 | 13.90566 | 33883 ft | 448 kts | 314° |
| 2026-05-01 14:38 | 44.59117 | 13.87060 | 34418 ft | 445 kts | 314° |
| 2026-05-01 14:38 | 44.60930 | 13.83521 | 34948 ft | 440 kts | 314° |
| 2026-05-01 14:38 | 44.62688 | 13.80091 | 35345 ft | 439 kts | 314° |
| 2026-05-01 14:38 | 44.64422 | 13.76707 | 35715 ft | 438 kts | 314° |
| 2026-05-01 14:39 | 44.66190 | 13.73253 | 36065 ft | 438 kts | 313° |
| 2026-05-01 14:39 | 44.67909 | 13.69894 | 36273 ft | 440 kts | 313° |
| 2026-05-01 14:39 | 44.69728 | 13.66342 | 36289 ft | 446 kts | 313° |
| 2026-05-01 14:40 | 44.73380 | 13.59190 | 36299 ft | 451 kts | 313° |
| 2026-05-01 14:40 | 44.76966 | 13.52113 | 36295 ft | 446 kts | 313° |
| 2026-05-01 14:41 | 44.80561 | 13.45016 | 36288 ft | 449 kts | 313° |
| 2026-05-01 14:41 | 44.84164 | 13.37888 | 36291 ft | 449 kts | 313° |
| 2026-05-01 14:42 | 44.87772 | 13.30737 | 36297 ft | 447 kts | 312° |
| 2026-05-01 14:42 | 44.91363 | 13.23603 | 36303 ft | 451 kts | 312° |
| 2026-05-01 14:43 | 44.94998 | 13.16355 | 36294 ft | 448 kts | 312° |
| 2026-05-01 14:43 | 44.98601 | 13.09153 | 36306 ft | 449 kts | 312° |
| 2026-05-01 14:44 | 45.02089 | 13.01877 | 36314 ft | 447 kts | 310° |
| 2026-05-01 14:44 | 45.07229 | 12.90868 | 36313 ft | 451 kts | 310° |
| 2026-05-01 14:45 | 45.12405 | 12.79769 | 36312 ft | 449 kts | 310° |
| 2026-05-01 14:46 | 45.15862 | 12.72350 | 36299 ft | 449 kts | 309° |
| 2026-05-01 14:46 | 45.21003 | 12.61286 | 36306 ft | 449 kts | 309° |
| 2026-05-01 14:47 | 45.24407 | 12.53940 | 36309 ft | 449 kts | 309° |
| 2026-05-01 14:48 | 45.29524 | 12.42863 | 36295 ft | 448 kts | 309° |
| 2026-05-01 14:48 | 45.34638 | 12.31747 | 36298 ft | 449 kts | 308° |
| 2026-05-01 14:49 | 45.41450 | 12.16876 | 36306 ft | 449 kts | 308° |
| 2026-05-01 14:50 | 45.44271 | 12.10701 | 36654 ft | 449 kts | 308° |
| 2026-05-01 14:50 | 45.48221 | 12.02018 | 36311 ft | 444 kts | 308° |
| 2026-05-01 14:51 | 45.53274 | 11.90879 | 36306 ft | 450 kts | 308° |
| 2026-05-01 14:52 | 45.58337 | 11.79677 | 36302 ft | 448 kts | 307° |
| 2026-05-01 14:53 | 45.63389 | 11.68450 | 36301 ft | 448 kts | 307° |
| 2026-05-01 14:53 | 45.66958 | 11.61245 | 36303 ft | 446 kts | 312° |
| 2026-05-01 14:54 | 45.70725 | 11.54267 | 36295 ft | 445 kts | 312° |
| 2026-05-01 14:54 | 45.74479 | 11.47245 | 36284 ft | 445 kts | 312° |
| 2026-05-01 14:55 | 45.78210 | 11.40191 | 36290 ft | 445 kts | 311° |
| 2026-05-01 14:55 | 45.81936 | 11.33109 | 36288 ft | 445 kts | 310° |
| 2026-05-01 14:56 | 45.85665 | 11.25988 | 36297 ft | 445 kts | 310° |
| 2026-05-01 14:56 | 45.89363 | 11.18903 | 36285 ft | 446 kts | 310° |
| 2026-05-01 14:57 | 45.93072 | 11.11778 | 36287 ft | 446 kts | 310° |
| 2026-05-01 14:57 | 45.98640 | 11.01045 | 36280 ft | 446 kts | 310° |
| 2026-05-01 14:58 | 46.02323 | 10.93923 | 36270 ft | 445 kts | 310° |
| 2026-05-01 14:58 | 46.06015 | 10.86767 | 36280 ft | 446 kts | 310° |
| 2026-05-01 14:59 | 46.09691 | 10.79620 | 36292 ft | 445 kts | 310° |
| 2026-05-01 14:59 | 46.13369 | 10.72454 | 36288 ft | 444 kts | 310° |
| 2026-05-01 15:00 | 46.18848 | 10.61741 | 36292 ft | 445 kts | 310° |
| 2026-05-01 15:01 | 46.22503 | 10.54570 | 36303 ft | 444 kts | 310° |
| 2026-05-01 15:01 | 46.26165 | 10.47371 | 36317 ft | 445 kts | 310° |
| 2026-05-01 15:02 | 46.29828 | 10.40151 | 36319 ft | 445 kts | 310° |
| 2026-05-01 15:02 | 46.33452 | 10.32987 | 36328 ft | 445 kts | 309° |
| 2026-05-01 15:03 | 46.37099 | 10.25759 | 36332 ft | 445 kts | 309° |
| 2026-05-01 15:03 | 46.40724 | 10.18560 | 36325 ft | 444 kts | 308° |
| 2026-05-01 15:04 | 46.44375 | 10.11289 | 36326 ft | 444 kts | 309° |
| 2026-05-01 15:04 | 46.48019 | 10.04093 | 36347 ft | 444 kts | 310° |
| 2026-05-01 15:05 | 46.51993 | 9.97356 | 36375 ft | 443 kts | 314° |
| 2026-05-01 15:05 | 46.56103 | 9.90680 | 36374 ft | 443 kts | 314° |
| 2026-05-01 15:06 | 46.60175 | 9.84016 | 36371 ft | 442 kts | 314° |
| 2026-05-01 15:06 | 46.64246 | 9.77313 | 36354 ft | 443 kts | 314° |
| 2026-05-01 15:07 | 46.68320 | 9.70570 | 36332 ft | 444 kts | 314° |
| 2026-05-01 15:07 | 46.72373 | 9.63837 | 36316 ft | 444 kts | 313° |
| 2026-05-01 15:08 | 46.76435 | 9.57071 | 36310 ft | 444 kts | 313° |
| 2026-05-01 15:08 | 46.80492 | 9.50296 | 36323 ft | 443 kts | 313° |
| 2026-05-01 15:09 | 46.84545 | 9.43511 | 36327 ft | 444 kts | 313° |
| 2026-05-01 15:09 | 46.88584 | 9.36732 | 36325 ft | 444 kts | 313° |
| 2026-05-01 15:10 | 46.92649 | 9.29890 | 36315 ft | 445 kts | 312° |
| 2026-05-01 15:10 | 46.98688 | 9.19695 | 36306 ft | 445 kts | 312° |
| 2026-05-01 15:11 | 47.04762 | 9.09403 | 36305 ft | 446 kts | 312° |
| 2026-05-01 15:12 | 47.08802 | 9.02534 | 36308 ft | 446 kts | 312° |
| 2026-05-01 15:12 | 47.14624 | 8.91901 | 36315 ft | 447 kts | 304° |
| 2026-05-01 15:13 | 47.18605 | 8.79558 | 36290 ft | 449 kts | 292° |
| 2026-05-01 15:14 | 47.20795 | 8.70899 | 36268 ft | 449 kts | 292° |
| 2026-05-01 15:14 | 47.24029 | 8.58040 | 36260 ft | 450 kts | 292° |
| 2026-05-01 15:15 | 47.28354 | 8.40838 | 36257 ft | 449 kts | 292° |
| 2026-05-01 15:16 | 47.32690 | 8.23499 | 36251 ft | 449 kts | 291° |
| 2026-05-01 15:18 | 47.38033 | 8.01898 | 36245 ft | 450 kts | 290° |
| 2026-05-01 15:19 | 47.42289 | 7.84544 | 36240 ft | 451 kts | 290° |
| 2026-05-01 15:19 | 47.45461 | 7.71525 | 36239 ft | 449 kts | 290° |
| 2026-05-01 15:20 | 47.48151 | 7.58339 | 36238 ft | 449 kts | 284° |
| 2026-05-01 15:21 | 47.49605 | 7.49387 | 36236 ft | 448 kts | 284° |
| 2026-05-01 15:21 | 47.51060 | 7.40453 | 36237 ft | 450 kts | 284° |
| 2026-05-01 15:22 | 47.53272 | 7.26952 | 36237 ft | 450 kts | 283° |
| 2026-05-01 15:22 | 47.54747 | 7.17938 | 36235 ft | 451 kts | 283° |
| 2026-05-01 15:23 | 47.56218 | 7.08912 | 36227 ft | 453 kts | 283° |
| 2026-05-01 15:23 | 47.57679 | 6.99913 | 36003 ft | 452 kts | 283° |
| 2026-05-01 15:24 | 47.58419 | 6.95340 | 36497 ft | 453 kts | 283° |
| 2026-05-01 15:24 | 47.59146 | 6.90825 | 36286 ft | 459 kts | 283° |
| 2026-05-01 15:24 | 47.60603 | 6.81768 | 36236 ft | 450 kts | 282° |
| 2026-05-01 15:25 | 47.62053 | 6.72695 | 36234 ft | 453 kts | 282° |
| 2026-05-01 15:25 | 47.63486 | 6.63673 | 36228 ft | 452 kts | 282° |
| 2026-05-01 15:26 | 47.64941 | 6.54623 | 35979 ft | 452 kts | 284° |
| 2026-05-01 15:26 | 47.65900 | 6.50177 | 36170 ft | 453 kts | 290° |
| 2026-05-01 15:26 | 47.67291 | 6.45977 | 36206 ft | 459 kts | 302° |
| 2026-05-01 15:27 | 47.71425 | 6.38791 | 36218 ft | 459 kts | 316° |
| 2026-05-01 15:27 | 47.73925 | 6.35882 | 36391 ft | 463 kts | 328° |
| 2026-05-01 15:28 | 47.79837 | 6.32180 | 36227 ft | 459 kts | 341° |
| 2026-05-01 15:28 | 47.82958 | 6.31163 | 36221 ft | 462 kts | 354° |
| 2026-05-01 15:28 | 47.86167 | 6.31073 | 36226 ft | 465 kts | 1° |
| 2026-05-01 15:29 | 47.95831 | 6.32039 | 36108 ft | 462 kts | 4° |
| 2026-05-01 15:30 | 48.08780 | 6.33418 | 36207 ft | 465 kts | 4° |
| 2026-05-01 15:31 | 48.21482 | 6.34700 | 36027 ft | 444 kts | 3° |
| 2026-05-01 15:31 | 48.27607 | 6.35312 | 34788 ft | 446 kts | 4° |
| 2026-05-01 15:32 | 48.33817 | 6.35930 | 33145 ft | 452 kts | 4° |
| 2026-05-01 15:32 | 48.40073 | 6.36555 | 31738 ft | 449 kts | 4° |
| 2026-05-01 15:33 | 48.49198 | 6.37467 | 29989 ft | 438 kts | 4° |
| 2026-05-01 15:34 | 48.58138 | 6.38363 | 28195 ft | 428 kts | 4° |